CheckWX is a tool to help pilots better visualize weather data.  It is not intended as a substitute for an official pre-flight weather briefing.

03:00:06 UTC

KMUO METAR
Mountain Home AFB Airport
Mountain Home, Idaho, USA
Current

1 hour ago

KMUO 210158Z AUTO 14010KT 10SM CLR 00/M13 A3037 RMK AO2 SLP321 T00041126 $
Observed
Feb-21 @ 01:58 UTC
Wind
  • 140° at 10 KTS
Visibility
10 SM
Flight Rules
VFR
Cloud Levels
  • Clear skies
Temperature
C / 32°F
Dewpoint
-13°C / 9°F
Humidity
37%
Altimeter
30.37" Hg
Pressure
1028.42 hPa
Previous

2 hours ago

KMUO 210058Z AUTO 12011KT 10SM CLR 03/M13 A3036 RMK AO2 SLP312 T00341126 $
Observed
Feb-21 @ 00:58 UTC
Wind
  • 120° at 11 KTS
Visibility
10 SM
Flight Rules
VFR
Cloud Levels
  • Clear skies
Temperature
C / 37°F
Dewpoint
-13°C / 9°F
Humidity
30%
Altimeter
30.36" Hg
Pressure
1028.12 hPa
Previous

3 hours ago

KMUO 202358Z AUTO 12013KT 10SM CLR 05/M14 A3037 RMK AO2 SLP311 T00521138 10063 21008 57013 $
Observed
Feb-20 @ 23:58 UTC
Wind
  • 120° at 13 KTS
Visibility
10 SM
Flight Rules
VFR
Cloud Levels
  • Clear skies
Temperature
C / 41°F
Dewpoint
-14°C / 7°F
Humidity
24%
Altimeter
30.37" Hg
Pressure
1028.42 hPa